sensor_id;sensor_type;location;lat;lon;timestamp;P1;durP1;ratioP1;P2;durP2;ratioP2
12776;SDS011;6452;41.572;23.732;2024-01-10T00:02:12;2.15;;;1.70;;
12776;SDS011;6452;41.572;23.732;2024-01-10T00:04:38;2.42;;;2.22;;
12776;SDS011;6452;41.572;23.732;2024-01-10T00:07:05;1.83;;;1.73;;
12776;SDS011;6452;41.572;23.732;2024-01-10T00:09:32;2.65;;;1.70;;
12776;SDS011;6452;41.572;23.732;2024-01-10T00:11:58;2.05;;;1.95;;
12776;SDS011;6452;41.572;23.732;2024-01-10T00:14:25;1.67;;;1.58;;
12776;SDS011;6452;41.572;23.732;2024-01-10T00:16:51;1.20;;;1.20;;
12776;SDS011;6452;41.572;23.732;2024-01-10T00:19:18;1.23;;;1.23;;
12776;SDS011;6452;41.572;23.732;2024-01-10T00:21:45;1.25;;;1.25;;
12776;SDS011;6452;41.572;23.732;2024-01-10T00:24:11;1.70;;;1.60;;
12776;SDS011;6452;41.572;23.732;2024-01-10T00:26:37;1.38;;;1.38;;
12776;SDS011;6452;41.572;23.732;2024-01-10T00:29:03;1.25;;;1.25;;
12776;SDS011;6452;41.572;23.732;2024-01-10T00:31:30;1.35;;;1.35;;
12776;SDS011;6452;41.572;23.732;2024-01-10T00:33:56;1.00;;;1.00;;
12776;SDS011;6452;41.572;23.732;2024-01-10T00:36:23;1.38;;;1.30;;
12776;SDS011;6452;41.572;23.732;2024-01-10T00:38:49;1.23;;;1.23;;
12776;SDS011;6452;41.572;23.732;2024-01-10T00:41:16;1.10;;;1.10;;
12776;SDS011;6452;41.572;23.732;2024-01-10T00:43:42;1.17;;;1.17;;
12776;SDS011;6452;41.572;23.732;2024-01-10T00:46:09;1.00;;;1.00;;
12776;SDS011;6452;41.572;23.732;2024-01-10T00:48:36;0.90;;;0.90;;
12776;SDS011;6452;41.572;23.732;2024-01-10T00:51:03;1.20;;;1.20;;
12776;SDS011;6452;41.572;23.732;2024-01-10T00:53:36;1.30;;;1.30;;
12776;SDS011;6452;41.572;23.732;2024-01-10T00:56:20;1.20;;;1.15;;
12776;SDS011;6452;41.572;23.732;2024-01-10T00:58:47;1.20;;;1.20;;
12776;SDS011;6452;41.572;23.732;2024-01-10T01:01:14;1.13;;;1.10;;
12776;SDS011;6452;41.572;23.732;2024-01-10T01:03:40;1.45;;;1.35;;
12776;SDS011;6452;41.572;23.732;2024-01-10T01:06:07;1.30;;;1.30;;
12776;SDS011;6452;41.572;23.732;2024-01-10T01:08:34;1.13;;;1.13;;
12776;SDS011;6452;41.572;23.732;2024-01-10T01:11:01;1.10;;;1.10;;
12776;SDS011;6452;41.572;23.732;2024-01-10T01:13:27;1.48;;;1.13;;
12776;SDS011;6452;41.572;23.732;2024-01-10T01:15:53;1.08;;;1.08;;
12776;SDS011;6452;41.572;23.732;2024-01-10T01:18:20;1.05;;;1.05;;
12776;SDS011;6452;41.572;23.732;2024-01-10T01:20:46;1.20;;;1.20;;
12776;SDS011;6452;41.572;23.732;2024-01-10T01:23:15;1.13;;;1.13;;
12776;SDS011;6452;41.572;23.732;2024-01-10T01:25:42;1.10;;;1.10;;
12776;SDS011;6452;41.572;23.732;2024-01-10T01:28:09;1.00;;;1.00;;
12776;SDS011;6452;41.572;23.732;2024-01-10T01:30:35;1.00;;;1.00;;
12776;SDS011;6452;41.572;23.732;2024-01-10T01:33:02;1.02;;;1.02;;
12776;SDS011;6452;41.572;23.732;2024-01-10T01:35:30;0.88;;;0.88;;
12776;SDS011;6452;41.572;23.732;2024-01-10T01:37:57;0.93;;;0.93;;
12776;SDS011;6452;41.572;23.732;2024-01-10T01:40:23;1.13;;;1.13;;
12776;SDS011;6452;41.572;23.732;2024-01-10T01:42:50;0.90;;;0.90;;
12776;SDS011;6452;41.572;23.732;2024-01-10T01:45:16;1.65;;;1.15;;
12776;SDS011;6452;41.572;23.732;2024-01-10T01:47:42;1.00;;;1.00;;
12776;SDS011;6452;41.572;23.732;2024-01-10T01:50:08;1.00;;;1.00;;
12776;SDS011;6452;41.572;23.732;2024-01-10T01:52:34;0.80;;;0.80;;
12776;SDS011;6452;41.572;23.732;2024-01-10T01:55:01;0.90;;;0.90;;
12776;SDS011;6452;41.572;23.732;2024-01-10T01:57:28;0.93;;;0.93;;
12776;SDS011;6452;41.572;23.732;2024-01-10T01:59:54;0.80;;;0.80;;
12776;SDS011;6452;41.572;23.732;2024-01-10T02:02:21;1.27;;;1.20;;
12776;SDS011;6452;41.572;23.732;2024-01-10T02:04:48;1.10;;;1.00;;
12776;SDS011;6452;41.572;23.732;2024-01-10T02:07:15;1.05;;;1.05;;
12776;SDS011;6452;41.572;23.732;2024-01-10T02:09:42;1.00;;;1.00;;
12776;SDS011;6452;41.572;23.732;2024-01-10T02:12:08;1.02;;;1.02;;
12776;SDS011;6452;41.572;23.732;2024-01-10T02:14:35;1.30;;;1.30;;
12776;SDS011;6452;41.572;23.732;2024-01-10T02:17:02;0.98;;;0.98;;
12776;SDS011;6452;41.572;23.732;2024-01-10T02:19:29;1.08;;;1.08;;
12776;SDS011;6452;41.572;23.732;2024-01-10T02:21:56;1.50;;;1.30;;
12776;SDS011;6452;41.572;23.732;2024-01-10T02:24:23;1.27;;;1.27;;
12776;SDS011;6452;41.572;23.732;2024-01-10T02:26:49;1.60;;;1.50;;
12776;SDS011;6452;41.572;23.732;2024-01-10T02:29:15;1.38;;;1.38;;
12776;SDS011;6452;41.572;23.732;2024-01-10T02:31:42;1.00;;;1.00;;
12776;SDS011;6452;41.572;23.732;2024-01-10T02:34:09;1.08;;;1.08;;
12776;SDS011;6452;41.572;23.732;2024-01-10T02:36:36;1.25;;;1.25;;
12776;SDS011;6452;41.572;23.732;2024-01-10T02:39:03;0.90;;;0.90;;
12776;SDS011;6452;41.572;23.732;2024-01-10T02:41:29;1.02;;;1.02;;
12776;SDS011;6452;41.572;23.732;2024-01-10T02:43:55;1.45;;;1.30;;
12776;SDS011;6452;41.572;23.732;2024-01-10T02:46:24;1.30;;;1.20;;
12776;SDS011;6452;41.572;23.732;2024-01-10T02:48:54;2.15;;;1.67;;
12776;SDS011;6452;41.572;23.732;2024-01-10T02:51:21;2.40;;;2.20;;
12776;SDS011;6452;41.572;23.732;2024-01-10T02:53:47;2.83;;;1.80;;
12776;SDS011;6452;41.572;23.732;2024-01-10T02:56:14;1.30;;;1.20;;
12776;SDS011;6452;41.572;23.732;2024-01-10T02:58:41;1.17;;;1.17;;
12776;SDS011;6452;41.572;23.732;2024-01-10T03:01:08;1.45;;;1.35;;
12776;SDS011;6452;41.572;23.732;2024-01-10T03:03:34;0.90;;;0.90;;
12776;SDS011;6452;41.572;23.732;2024-01-10T03:06:00;1.10;;;1.10;;
12776;SDS011;6452;41.572;23.732;2024-01-10T03:08:27;0.90;;;0.90;;
12776;SDS011;6452;41.572;23.732;2024-01-10T03:10:53;1.10;;;1.10;;
12776;SDS011;6452;41.572;23.732;2024-01-10T03:13:20;1.05;;;1.05;;
12776;SDS011;6452;41.572;23.732;2024-01-10T03:15:47;0.90;;;0.90;;
12776;SDS011;6452;41.572;23.732;2024-01-10T03:18:13;1.02;;;1.02;;
12776;SDS011;6452;41.572;23.732;2024-01-10T03:20:40;1.05;;;1.05;;
12776;SDS011;6452;41.572;23.732;2024-01-10T03:23:07;0.90;;;0.90;;
12776;SDS011;6452;41.572;23.732;2024-01-10T03:25:33;1.20;;;1.20;;
12776;SDS011;6452;41.572;23.732;2024-01-10T03:28:00;0.95;;;0.95;;
12776;SDS011;6452;41.572;23.732;2024-01-10T03:30:26;0.98;;;0.98;;
12776;SDS011;6452;41.572;23.732;2024-01-10T03:32:53;1.10;;;1.10;;
12776;SDS011;6452;41.572;23.732;2024-01-10T03:35:19;1.02;;;1.02;;
12776;SDS011;6452;41.572;23.732;2024-01-10T03:37:45;1.35;;;1.35;;
12776;SDS011;6452;41.572;23.732;2024-01-10T03:40:12;2.45;;;2.30;;
12776;SDS011;6452;41.572;23.732;2024-01-10T03:42:39;3.00;;;2.72;;
12776;SDS011;6452;41.572;23.732;2024-01-10T03:45:05;2.70;;;2.50;;
12776;SDS011;6452;41.572;23.732;2024-01-10T03:47:31;2.58;;;2.30;;
12776;SDS011;6452;41.572;23.732;2024-01-10T03:49:58;2.33;;;2.22;;
12776;SDS011;6452;41.572;23.732;2024-01-10T03:52:24;1.33;;;1.30;;
12776;SDS011;6452;41.572;23.732;2024-01-10T03:54:51;1.20;;;1.20;;
12776;SDS011;6452;41.572;23.732;2024-01-10T03:57:18;1.40;;;1.30;;
12776;SDS011;6452;41.572;23.732;2024-01-10T03:59:44;1.20;;;1.20;;
12776;SDS011;6452;41.572;23.732;2024-01-10T04:02:10;1.98;;;1.88;;
12776;SDS011;6452;41.572;23.732;2024-01-10T04:04:37;1.58;;;1.48;;
12776;SDS011;6452;41.572;23.732;2024-01-10T04:07:04;3.30;;;2.40;;
12776;SDS011;6452;41.572;23.732;2024-01-10T04:09:30;3.28;;;2.40;;
12776;SDS011;6452;41.572;23.732;2024-01-10T04:11:56;1.98;;;1.60;;
12776;SDS011;6452;41.572;23.732;2024-01-10T04:14:23;4.47;;;3.47;;
12776;SDS011;6452;41.572;23.732;2024-01-10T04:16:50;4.85;;;4.45;;
12776;SDS011;6452;41.572;23.732;2024-01-10T04:19:17;5.60;;;4.82;;
12776;SDS011;6452;41.572;23.732;2024-01-10T04:21:44;4.45;;;4.10;;
12776;SDS011;6452;41.572;23.732;2024-01-10T04:24:10;3.53;;;3.22;;
12776;SDS011;6452;41.572;23.732;2024-01-10T04:26:37;3.92;;;3.63;;
12776;SDS011;6452;41.572;23.732;2024-01-10T04:29:03;4.72;;;4.30;;
12776;SDS011;6452;41.572;23.732;2024-01-10T04:31:30;4.88;;;4.15;;
12776;SDS011;6452;41.572;23.732;2024-01-10T04:33:56;5.22;;;4.72;;
12776;SDS011;6452;41.572;23.732;2024-01-10T04:36:23;5.68;;;4.60;;
12776;SDS011;6452;41.572;23.732;2024-01-10T04:38:49;5.10;;;3.40;;
12776;SDS011;6452;41.572;23.732;2024-01-10T04:41:15;4.93;;;3.90;;
12776;SDS011;6452;41.572;23.732;2024-01-10T04:43:42;8.55;;;5.28;;
12776;SDS011;6452;41.572;23.732;2024-01-10T04:46:08;9.30;;;5.93;;
12776;SDS011;6452;41.572;23.732;2024-01-10T04:48:36;12.05;;;7.10;;
12776;SDS011;6452;41.572;23.732;2024-01-10T04:51:02;12.57;;;8.05;;
12776;SDS011;6452;41.572;23.732;2024-01-10T04:53:29;11.40;;;6.97;;
12776;SDS011;6452;41.572;23.732;2024-01-10T04:55:56;11.63;;;7.85;;
12776;SDS011;6452;41.572;23.732;2024-01-10T04:58:23;13.90;;;8.00;;
12776;SDS011;6452;41.572;23.732;2024-01-10T05:00:49;5.13;;;4.63;;
12776;SDS011;6452;41.572;23.732;2024-01-10T05:03:15;6.10;;;4.47;;
12776;SDS011;6452;41.572;23.732;2024-01-10T05:05:42;3.95;;;3.50;;
12776;SDS011;6452;41.572;23.732;2024-01-10T05:08:09;3.90;;;3.60;;
12776;SDS011;6452;41.572;23.732;2024-01-10T05:10:35;11.85;;;7.95;;
12776;SDS011;6452;41.572;23.732;2024-01-10T05:13:02;14.85;;;9.93;;
12776;SDS011;6452;41.572;23.732;2024-01-10T05:15:28;18.88;;;12.73;;
12776;SDS011;6452;41.572;23.732;2024-01-10T05:17:54;14.25;;;9.30;;
12776;SDS011;6452;41.572;23.732;2024-01-10T05:20:21;8.48;;;7.28;;
12776;SDS011;6452;41.572;23.732;2024-01-10T05:22:48;11.80;;;7.63;;
12776;SDS011;6452;41.572;23.732;2024-01-10T05:25:14;7.85;;;7.05;;
12776;SDS011;6452;41.572;23.732;2024-01-10T05:27:43;10.95;;;9.30;;
12776;SDS011;6452;41.572;23.732;2024-01-10T05:30:09;8.13;;;7.20;;
12776;SDS011;6452;41.572;23.732;2024-01-10T05:32:38;10.32;;;7.60;;
12776;SDS011;6452;41.572;23.732;2024-01-10T05:35:04;15.93;;;9.70;;
12776;SDS011;6452;41.572;23.732;2024-01-10T05:37:30;10.85;;;6.32;;
12776;SDS011;6452;41.572;23.732;2024-01-10T05:39:57;14.57;;;10.07;;
12776;SDS011;6452;41.572;23.732;2024-01-10T05:42:23;24.70;;;13.02;;
12776;SDS011;6452;41.572;23.732;2024-01-10T05:44:50;25.33;;;11.95;;
12776;SDS011;6452;41.572;23.732;2024-01-10T05:47:17;15.88;;;7.07;;
12776;SDS011;6452;41.572;23.732;2024-01-10T05:49:44;8.40;;;5.45;;
12776;SDS011;6452;41.572;23.732;2024-01-10T05:52:11;9.65;;;5.50;;
12776;SDS011;6452;41.572;23.732;2024-01-10T05:54:38;9.93;;;5.90;;
12776;SDS011;6452;41.572;23.732;2024-01-10T05:57:04;9.15;;;6.35;;
12776;SDS011;6452;41.572;23.732;2024-01-10T05:59:31;9.02;;;6.32;;
12776;SDS011;6452;41.572;23.732;2024-01-10T06:01:58;5.35;;;4.85;;
12776;SDS011;6452;41.572;23.732;2024-01-10T06:04:25;5.85;;;4.95;;
12776;SDS011;6452;41.572;23.732;2024-01-10T06:06:53;8.63;;;6.07;;
12776;SDS011;6452;41.572;23.732;2024-01-10T06:09:20;6.13;;;5.50;;
12776;SDS011;6452;41.572;23.732;2024-01-10T06:11:47;7.00;;;5.88;;
12776;SDS011;6452;41.572;23.732;2024-01-10T06:14:13;7.78;;;5.93;;
12776;SDS011;6452;41.572;23.732;2024-01-10T06:16:40;8.18;;;6.78;;
12776;SDS011;6452;41.572;23.732;2024-01-10T06:19:06;7.43;;;6.07;;
12776;SDS011;6452;41.572;23.732;2024-01-10T06:21:33;7.35;;;5.72;;
12776;SDS011;6452;41.572;23.732;2024-01-10T06:24:00;8.75;;;6.60;;
12776;SDS011;6452;41.572;23.732;2024-01-10T06:26:26;8.50;;;7.47;;
12776;SDS011;6452;41.572;23.732;2024-01-10T06:28:53;19.85;;;11.80;;
12776;SDS011;6452;41.572;23.732;2024-01-10T06:31:19;20.92;;;12.50;;
12776;SDS011;6452;41.572;23.732;2024-01-10T06:33:45;20.38;;;12.80;;
12776;SDS011;6452;41.572;23.732;2024-01-10T06:36:12;17.17;;;13.15;;
12776;SDS011;6452;41.572;23.732;2024-01-10T06:38:38;18.63;;;11.05;;
12776;SDS011;6452;41.572;23.732;2024-01-10T06:41:08;22.55;;;12.73;;
12776;SDS011;6452;41.572;23.732;2024-01-10T06:43:51;19.55;;;12.25;;
12776;SDS011;6452;41.572;23.732;2024-01-10T06:46:17;16.13;;;11.57;;
12776;SDS011;6452;41.572;23.732;2024-01-10T06:48:44;18.08;;;11.95;;
12776;SDS011;6452;41.572;23.732;2024-01-10T06:51:12;24.20;;;12.18;;
12776;SDS011;6452;41.572;23.732;2024-01-10T06:53:38;17.02;;;13.13;;
12776;SDS011;6452;41.572;23.732;2024-01-10T06:56:05;21.20;;;14.18;;
12776;SDS011;6452;41.572;23.732;2024-01-10T06:58:32;20.23;;;14.45;;
12776;SDS011;6452;41.572;23.732;2024-01-10T07:00:58;22.73;;;15.40;;
12776;SDS011;6452;41.572;23.732;2024-01-10T07:03:33;28.48;;;17.33;;
12776;SDS011;6452;41.572;23.732;2024-01-10T07:06:18;25.08;;;16.02;;
12776;SDS011;6452;41.572;23.732;2024-01-10T07:08:44;24.30;;;17.02;;
12776;SDS011;6452;41.572;23.732;2024-01-10T07:11:12;27.88;;;17.30;;
12776;SDS011;6452;41.572;23.732;2024-01-10T07:13:38;20.10;;;15.07;;
12776;SDS011;6452;41.572;23.732;2024-01-10T07:16:05;22.83;;;16.50;;
12776;SDS011;6452;41.572;23.732;2024-01-10T07:18:32;16.10;;;12.57;;
12776;SDS011;6452;41.572;23.732;2024-01-10T07:20:58;17.30;;;13.65;;
12776;SDS011;6452;41.572;23.732;2024-01-10T07:23:25;21.30;;;16.13;;
12776;SDS011;6452;41.572;23.732;2024-01-10T07:25:51;12.55;;;10.48;;
12776;SDS011;6452;41.572;23.732;2024-01-10T07:28:17;4.82;;;4.32;;
12776;SDS011;6452;41.572;23.732;2024-01-10T07:30:47;4.93;;;4.40;;
12776;SDS011;6452;41.572;23.732;2024-01-10T07:33:13;6.78;;;5.63;;
12776;SDS011;6452;41.572;23.732;2024-01-10T07:35:39;7.50;;;5.28;;
12776;SDS011;6452;41.572;23.732;2024-01-10T07:38:05;5.25;;;4.75;;
12776;SDS011;6452;41.572;23.732;2024-01-10T07:40:35;6.82;;;5.47;;
12776;SDS011;6452;41.572;23.732;2024-01-10T07:43:01;6.80;;;5.70;;
12776;SDS011;6452;41.572;23.732;2024-01-10T07:45:27;7.72;;;6.07;;
12776;SDS011;6452;41.572;23.732;2024-01-10T07:47:54;13.73;;;7.57;;
12776;SDS011;6452;41.572;23.732;2024-01-10T07:50:20;15.35;;;7.95;;
12776;SDS011;6452;41.572;23.732;2024-01-10T07:52:49;14.70;;;7.55;;
12776;SDS011;6452;41.572;23.732;2024-01-10T07:55:16;14.63;;;8.40;;
12776;SDS011;6452;41.572;23.732;2024-01-10T07:57:42;13.65;;;8.75;;
12776;SDS011;6452;41.572;23.732;2024-01-10T08:00:09;15.50;;;9.63;;
12776;SDS011;6452;41.572;23.732;2024-01-10T08:02:36;13.23;;;9.63;;
12776;SDS011;6452;41.572;23.732;2024-01-10T08:05:03;16.00;;;10.23;;
12776;SDS011;6452;41.572;23.732;2024-01-10T08:07:36;14.10;;;9.95;;
12776;SDS011;6452;41.572;23.732;2024-01-10T08:10:07;17.40;;;11.45;;
12776;SDS011;6452;41.572;23.732;2024-01-10T08:12:50;10.52;;;6.78;;
12776;SDS011;6452;41.572;23.732;2024-01-10T08:15:18;9.27;;;6.18;;
12776;SDS011;6452;41.572;23.732;2024-01-10T08:17:45;5.93;;;5.32;;
12776;SDS011;6452;41.572;23.732;2024-01-10T08:20:12;6.38;;;5.72;;
12776;SDS011;6452;41.572;23.732;2024-01-10T08:22:40;6.15;;;5.40;;
12776;SDS011;6452;41.572;23.732;2024-01-10T08:25:07;10.43;;;7.80;;
12776;SDS011;6452;41.572;23.732;2024-01-10T08:27:33;13.68;;;9.57;;
12776;SDS011;6452;41.572;23.732;2024-01-10T08:30:00;12.20;;;8.10;;
12776;SDS011;6452;41.572;23.732;2024-01-10T08:32:30;11.32;;;6.90;;
12776;SDS011;6452;41.572;23.732;2024-01-10T08:34:56;15.70;;;9.75;;
12776;SDS011;6452;41.572;23.732;2024-01-10T08:37:23;11.00;;;6.85;;
12776;SDS011;6452;41.572;23.732;2024-01-10T08:39:49;18.45;;;7.68;;
12776;SDS011;6452;41.572;23.732;2024-01-10T08:42:16;10.65;;;6.63;;
12776;SDS011;6452;41.572;23.732;2024-01-10T08:44:43;8.52;;;6.75;;
12776;SDS011;6452;41.572;23.732;2024-01-10T08:47:10;11.63;;;8.27;;
12776;SDS011;6452;41.572;23.732;2024-01-10T08:49:36;12.95;;;6.57;;
12776;SDS011;6452;41.572;23.732;2024-01-10T08:52:03;7.68;;;5.95;;
12776;SDS011;6452;41.572;23.732;2024-01-10T08:54:30;7.97;;;6.40;;
12776;SDS011;6452;41.572;23.732;2024-01-10T08:56:56;7.18;;;5.75;;
12776;SDS011;6452;41.572;23.732;2024-01-10T08:59:24;6.25;;;5.63;;
12776;SDS011;6452;41.572;23.732;2024-01-10T09:01:53;7.78;;;6.35;;
12776;SDS011;6452;41.572;23.732;2024-01-10T09:04:19;10.32;;;7.55;;
12776;SDS011;6452;41.572;23.732;2024-01-10T09:06:46;13.80;;;9.38;;
12776;SDS011;6452;41.572;23.732;2024-01-10T09:09:13;7.88;;;6.18;;
12776;SDS011;6452;41.572;23.732;2024-01-10T09:11:40;9.77;;;6.82;;
12776;SDS011;6452;41.572;23.732;2024-01-10T09:14:06;7.18;;;6.20;;
12776;SDS011;6452;41.572;23.732;2024-01-10T09:16:34;7.97;;;6.80;;
12776;SDS011;6452;41.572;23.732;2024-01-10T09:19:01;7.72;;;6.38;;
12776;SDS011;6452;41.572;23.732;2024-01-10T09:21:28;12.70;;;6.03;;
12776;SDS011;6452;41.572;23.732;2024-01-10T09:23:54;8.80;;;7.15;;
12776;SDS011;6452;41.572;23.732;2024-01-10T09:26:22;9.23;;;6.68;;
12776;SDS011;6452;41.572;23.732;2024-01-10T09:28:48;11.27;;;6.90;;
12776;SDS011;6452;41.572;23.732;2024-01-10T09:31:14;9.43;;;7.03;;
12776;SDS011;6452;41.572;23.732;2024-01-10T09:33:40;25.90;;;19.60;;
12776;SDS011;6452;41.572;23.732;2024-01-10T09:36:06;9.32;;;7.13;;
12776;SDS011;6452;41.572;23.732;2024-01-10T09:38:36;13.57;;;9.02;;
12776;SDS011;6452;41.572;23.732;2024-01-10T09:41:05;3.80;;;3.50;;
12776;SDS011;6452;41.572;23.732;2024-01-10T09:43:31;7.93;;;6.72;;
12776;SDS011;6452;41.572;23.732;2024-01-10T09:45:59;4.65;;;3.00;;
12776;SDS011;6452;41.572;23.732;2024-01-10T09:48:26;3.70;;;2.90;;
12776;SDS011;6452;41.572;23.732;2024-01-10T09:50:52;2.90;;;2.60;;
12776;SDS011;6452;41.572;23.732;2024-01-10T09:53:23;2.60;;;2.40;;
12776;SDS011;6452;41.572;23.732;2024-01-10T09:55:52;2.35;;;2.25;;
12776;SDS011;6452;41.572;23.732;2024-01-10T09:58:18;3.28;;;3.08;;
12776;SDS011;6452;41.572;23.732;2024-01-10T10:00:44;3.20;;;2.85;;
12776;SDS011;6452;41.572;23.732;2024-01-10T10:03:10;2.70;;;2.50;;
12776;SDS011;6452;41.572;23.732;2024-01-10T10:05:38;2.78;;;2.55;;
12776;SDS011;6452;41.572;23.732;2024-01-10T10:08:06;3.47;;;3.17;;
12776;SDS011;6452;41.572;23.732;2024-01-10T10:10:32;4.38;;;3.30;;
12776;SDS011;6452;41.572;23.732;2024-01-10T10:13:00;8.18;;;5.82;;
12776;SDS011;6452;41.572;23.732;2024-01-10T10:15:27;7.80;;;4.32;;
12776;SDS011;6452;41.572;23.732;2024-01-10T10:17:54;4.47;;;4.07;;
12776;SDS011;6452;41.572;23.732;2024-01-10T10:23:07;5.85;;;4.00;;
12776;SDS011;6452;41.572;23.732;2024-01-10T10:25:33;3.67;;;3.42;;
12776;SDS011;6452;41.572;23.732;2024-01-10T10:28:03;3.40;;;3.10;;
12776;SDS011;6452;41.572;23.732;2024-01-10T10:30:32;5.32;;;4.80;;
12776;SDS011;6452;41.572;23.732;2024-01-10T10:32:59;8.00;;;5.43;;
12776;SDS011;6452;41.572;23.732;2024-01-10T10:35:24;10.60;;;6.72;;
12776;SDS011;6452;41.572;23.732;2024-01-10T10:37:51;7.25;;;5.35;;
12776;SDS011;6452;41.572;23.732;2024-01-10T10:40:17;4.97;;;4.57;;
12776;SDS011;6452;41.572;23.732;2024-01-10T10:42:44;5.53;;;4.35;;
12776;SDS011;6452;41.572;23.732;2024-01-10T10:45:15;4.25;;;3.95;;
12776;SDS011;6452;41.572;23.732;2024-01-10T10:47:58;5.25;;;4.72;;
12776;SDS011;6452;41.572;23.732;2024-01-10T10:50:24;7.25;;;4.90;;
12776;SDS011;6452;41.572;23.732;2024-01-10T10:52:51;5.50;;;4.88;;
12776;SDS011;6452;41.572;23.732;2024-01-10T10:55:18;17.00;;;12.85;;
12776;SDS011;6452;41.572;23.732;2024-01-10T10:57:47;5.40;;;4.90;;
12776;SDS011;6452;41.572;23.732;2024-01-10T11:00:14;5.40;;;4.90;;
12776;SDS011;6452;41.572;23.732;2024-01-10T11:02:41;5.22;;;4.72;;
12776;SDS011;6452;41.572;23.732;2024-01-10T11:05:08;4.07;;;3.78;;
12776;SDS011;6452;41.572;23.732;2024-01-10T11:07:35;3.03;;;2.83;;
12776;SDS011;6452;41.572;23.732;2024-01-10T11:10:13;2.53;;;2.42;;
12776;SDS011;6452;41.572;23.732;2024-01-10T11:20:24;4.70;;;4.30;;
12776;SDS011;6452;41.572;23.732;2024-01-10T11:25:25;6.22;;;4.00;;
12776;SDS011;6452;41.572;23.732;2024-01-10T11:27:52;4.38;;;3.97;;
12776;SDS011;6452;41.572;23.732;2024-01-10T11:33:18;3.80;;;3.50;;
12776;SDS011;6452;41.572;23.732;2024-01-10T11:36:05;8.70;;;7.80;;
12776;SDS011;6452;41.572;23.732;2024-01-10T11:38:30;3.55;;;3.33;;
12776;SDS011;6452;41.572;23.732;2024-01-10T11:40:56;3.60;;;3.30;;
12776;SDS011;6452;41.572;23.732;2024-01-10T11:43:22;3.90;;;3.60;;
12776;SDS011;6452;41.572;23.732;2024-01-10T11:45:52;4.07;;;3.50;;
12776;SDS011;6452;41.572;23.732;2024-01-10T11:48:28;4.40;;;3.38;;
12776;SDS011;6452;41.572;23.732;2024-01-10T11:51:06;3.80;;;3.50;;
12776;SDS011;6452;41.572;23.732;2024-01-10T11:56:12;3.30;;;3.10;;
12776;SDS011;6452;41.572;23.732;2024-01-10T12:01:31;4.07;;;3.63;;
12776;SDS011;6452;41.572;23.732;2024-01-10T12:03:58;4.35;;;3.95;;
12776;SDS011;6452;41.572;23.732;2024-01-10T12:06:25;3.55;;;3.25;;
12776;SDS011;6452;41.572;23.732;2024-01-10T12:08:52;3.53;;;3.25;;
12776;SDS011;6452;41.572;23.732;2024-01-10T12:11:18;3.50;;;3.15;;
12776;SDS011;6452;41.572;23.732;2024-01-10T12:13:45;3.28;;;3.03;;
12776;SDS011;6452;41.572;23.732;2024-01-10T12:16:12;3.80;;;3.10;;
12776;SDS011;6452;41.572;23.732;2024-01-10T12:18:42;4.93;;;4.18;;
12776;SDS011;6452;41.572;23.732;2024-01-10T12:21:08;3.95;;;3.58;;
12776;SDS011;6452;41.572;23.732;2024-01-10T12:23:34;3.15;;;2.95;;
12776;SDS011;6452;41.572;23.732;2024-01-10T12:26:02;2.42;;;2.33;;
12776;SDS011;6452;41.572;23.732;2024-01-10T12:28:30;3.00;;;2.58;;
12776;SDS011;6452;41.572;23.732;2024-01-10T12:30:57;3.75;;;3.05;;
12776;SDS011;6452;41.572;23.732;2024-01-10T12:33:24;3.92;;;2.92;;
12776;SDS011;6452;41.572;23.732;2024-01-10T12:36:04;3.00;;;2.90;;
12776;SDS011;6452;41.572;23.732;2024-01-10T12:38:30;2.75;;;2.65;;
12776;SDS011;6452;41.572;23.732;2024-01-10T12:40:58;4.03;;;3.63;;
12776;SDS011;6452;41.572;23.732;2024-01-10T12:43:24;3.75;;;3.45;;
12776;SDS011;6452;41.572;23.732;2024-01-10T12:48:36;2.95;;;2.78;;
12776;SDS011;6452;41.572;23.732;2024-01-10T12:51:09;3.42;;;2.75;;
12776;SDS011;6452;41.572;23.732;2024-01-10T12:53:41;3.05;;;2.75;;
12776;SDS011;6452;41.572;23.732;2024-01-10T12:56:09;3.20;;;2.90;;
12776;SDS011;6452;41.572;23.732;2024-01-10T12:58:56;2.80;;;2.70;;
12776;SDS011;6452;41.572;23.732;2024-01-10T13:01:23;3.20;;;2.90;;
12776;SDS011;6452;41.572;23.732;2024-01-10T13:03:50;4.40;;;2.60;;
12776;SDS011;6452;41.572;23.732;2024-01-10T13:06:17;2.47;;;2.38;;
12776;SDS011;6452;41.572;23.732;2024-01-10T13:08:44;2.40;;;2.30;;
12776;SDS011;6452;41.572;23.732;2024-01-10T13:11:11;2.85;;;2.38;;
12776;SDS011;6452;41.572;23.732;2024-01-10T13:13:42;2.90;;;2.60;;
12776;SDS011;6452;41.572;23.732;2024-01-10T13:16:08;2.60;;;2.50;;
12776;SDS011;6452;41.572;23.732;2024-01-10T13:18:40;2.40;;;2.30;;
12776;SDS011;6452;41.572;23.732;2024-01-10T13:21:25;2.20;;;2.00;;
12776;SDS011;6452;41.572;23.732;2024-01-10T13:23:52;2.30;;;2.20;;
12776;SDS011;6452;41.572;23.732;2024-01-10T13:26:19;1.88;;;1.83;;
12776;SDS011;6452;41.572;23.732;2024-01-10T13:28:45;2.13;;;1.88;;
12776;SDS011;6452;41.572;23.732;2024-01-10T13:31:11;2.33;;;2.13;;
12776;SDS011;6452;41.572;23.732;2024-01-10T13:33:38;2.20;;;2.10;;
12776;SDS011;6452;41.572;23.732;2024-01-10T13:36:05;4.55;;;4.15;;
12776;SDS011;6452;41.572;23.732;2024-01-10T13:38:31;2.70;;;2.50;;
12776;SDS011;6452;41.572;23.732;2024-01-10T13:40:58;3.63;;;2.80;;
12776;SDS011;6452;41.572;23.732;2024-01-10T13:43:26;2.65;;;2.50;;
12776;SDS011;6452;41.572;23.732;2024-01-10T13:45:53;5.00;;;3.55;;
12776;SDS011;6452;41.572;23.732;2024-01-10T13:48:20;9.63;;;7.07;;
12776;SDS011;6452;41.572;23.732;2024-01-10T13:50:46;12.55;;;8.38;;
12776;SDS011;6452;41.572;23.732;2024-01-10T13:53:14;11.25;;;8.98;;
12776;SDS011;6452;41.572;23.732;2024-01-10T13:55:40;12.43;;;9.40;;
12776;SDS011;6452;41.572;23.732;2024-01-10T13:58:06;8.70;;;7.38;;
12776;SDS011;6452;41.572;23.732;2024-01-10T14:00:33;7.65;;;6.22;;
12776;SDS011;6452;41.572;23.732;2024-01-10T14:03:00;6.47;;;5.63;;
12776;SDS011;6452;41.572;23.732;2024-01-10T14:05:27;9.38;;;6.65;;
12776;SDS011;6452;41.572;23.732;2024-01-10T14:07:53;6.38;;;5.88;;
12776;SDS011;6452;41.572;23.732;2024-01-10T14:10:19;13.27;;;11.35;;
12776;SDS011;6452;41.572;23.732;2024-01-10T14:12:45;23.83;;;20.88;;
12776;SDS011;6452;41.572;23.732;2024-01-10T14:15:13;28.13;;;23.10;;
12776;SDS011;6452;41.572;23.732;2024-01-10T14:17:40;33.03;;;29.65;;
12776;SDS011;6452;41.572;23.732;2024-01-10T14:20:06;31.83;;;25.98;;
12776;SDS011;6452;41.572;23.732;2024-01-10T14:22:35;36.60;;;29.88;;
12776;SDS011;6452;41.572;23.732;2024-01-10T14:25:02;35.83;;;29.35;;
12776;SDS011;6452;41.572;23.732;2024-01-10T14:27:29;31.52;;;24.55;;
12776;SDS011;6452;41.572;23.732;2024-01-10T14:29:55;22.80;;;17.98;;
12776;SDS011;6452;41.572;23.732;2024-01-10T14:32:20;22.88;;;18.58;;
12776;SDS011;6452;41.572;23.732;2024-01-10T14:34:47;21.92;;;17.02;;
12776;SDS011;6452;41.572;23.732;2024-01-10T14:37:13;24.00;;;14.20;;
12776;SDS011;6452;41.572;23.732;2024-01-10T14:39:40;20.75;;;13.98;;
12776;SDS011;6452;41.572;23.732;2024-01-10T14:42:07;25.20;;;19.35;;
12776;SDS011;6452;41.572;23.732;2024-01-10T14:44:34;25.10;;;19.13;;
12776;SDS011;6452;41.572;23.732;2024-01-10T14:47:01;21.50;;;17.30;;
12776;SDS011;6452;41.572;23.732;2024-01-10T14:49:28;24.15;;;17.40;;
12776;SDS011;6452;41.572;23.732;2024-01-10T14:51:56;24.52;;;15.85;;
12776;SDS011;6452;41.572;23.732;2024-01-10T14:54:22;25.35;;;16.35;;
12776;SDS011;6452;41.572;23.732;2024-01-10T14:56:49;21.73;;;14.40;;
12776;SDS011;6452;41.572;23.732;2024-01-10T14:59:16;18.30;;;12.35;;
12776;SDS011;6452;41.572;23.732;2024-01-10T15:01:44;13.60;;;11.35;;
12776;SDS011;6452;41.572;23.732;2024-01-10T15:04:11;18.23;;;13.50;;
12776;SDS011;6452;41.572;23.732;2024-01-10T15:06:47;20.00;;;13.40;;
12776;SDS011;6452;41.572;23.732;2024-01-10T15:09:30;18.98;;;13.70;;